Time,TemperatureF,DewpointF,PressureIn,WindDirection,WindDirectionDegrees,WindSpeedMPH,WindSpeedGustMPH,Humidity,HourlyPrecipIn,Conditions,Clouds,dailyrainin,SolarRadiationWatts/m^2,SoftwareType,DateUTC
2013-04-16 00:02:00,63.0,16.0,-100.00,SW,218,10.0,25.0,16,0.00,,,0.00,0.000000,,2013-04-16 06:02:00,
2013-04-16 00:12:00,63.0,16.0,-100.00,SW,218,10.0,25.0,16,0.00,,,0.00,0.000000,,2013-04-16 06:12:00,
2013-04-16 00:22:00,63.0,16.0,-100.00,SW,218,10.0,25.0,16,0.00,,,0.00,0.000000,,2013-04-16 06:22:00,
2013-04-16 00:52:00,60.0,12.0,-100.00,SSW,205,7.0,21.0,15,0.00,,,0.00,0.000000,,2013-04-16 06:52:00,
2013-04-16 01:02:00,60.0,12.0,-100.00,SSW,205,7.0,21.0,15,0.00,,,0.00,0.000000,,2013-04-16 07:02:00,
2013-04-16 01:12:00,60.0,12.0,-100.00,SSW,205,7.0,21.0,15,0.00,,,0.00,0.000000,,2013-04-16 07:12:00,
2013-04-16 01:22:00,60.0,12.0,-100.00,SSW,205,7.0,21.0,15,0.00,,,0.00,0.000000,,2013-04-16 07:22:00,
2013-04-16 01:53:00,59.0,16.0,-100.00,West,269,3.0,18.0,18,0.00,,,0.00,0.000000,,2013-04-16 07:53:00,
2013-04-16 02:02:00,59.0,16.0,-100.00,West,269,3.0,18.0,18,0.00,,,0.00,0.000000,,2013-04-16 08:02:00,
2013-04-16 02:12:00,59.0,16.0,-100.00,West,269,3.0,18.0,18,0.00,,,0.00,0.000000,,2013-04-16 08:12:00,
2013-04-16 02:22:00,59.0,16.0,-100.00,West,269,3.0,18.0,18,0.00,,,0.00,0.000000,,2013-04-16 08:22:00,
2013-04-16 02:52:00,58.0,13.0,-100.00,SSE,153,2.0,13.0,17,0.00,,,0.00,0.000000,,2013-04-16 08:52:00,
2013-04-16 03:02:00,58.0,13.0,-100.00,SSE,153,2.0,13.0,17,0.00,,,0.00,0.000000,,2013-04-16 09:02:00,
2013-04-16 03:12:00,58.0,13.0,-100.00,SSE,153,2.0,13.0,17,0.00,,,0.00,0.000000,,2013-04-16 09:12:00,
2013-04-16 03:22:00,58.0,13.0,-100.00,SSE,153,2.0,13.0,17,0.00,,,0.00,0.000000,,2013-04-16 09:22:00,
2013-04-16 03:53:00,55.0,14.0,-100.00,East,90,4.0,12.0,19,0.00,,,0.00,0.000000,,2013-04-16 09:53:00,
2013-04-16 04:03:00,55.0,14.0,-100.00,East,90,4.0,12.0,19,0.00,,,0.00,0.000000,,2013-04-16 10:03:00,
2013-04-16 04:13:00,55.0,14.0,-100.00,East,90,4.0,12.0,19,0.00,,,0.00,0.000000,,2013-04-16 10:13:00,
2013-04-16 04:23:00,55.0,14.0,-100.00,East,90,4.0,12.0,19,0.00,,,0.00,0.000000,,2013-04-16 10:23:00,
2013-04-16 04:53:00,55.0,12.0,-100.00,ESE,106,4.0,10.0,18,0.00,,,0.00,0.000000,,2013-04-16 10:53:00,
2013-04-16 05:02:00,55.0,12.0,-100.00,ESE,106,4.0,10.0,18,0.00,,,0.00,0.000000,,2013-04-16 11:02:00,
2013-04-16 05:12:00,55.0,12.0,-100.00,ESE,106,4.0,10.0,18,0.00,,,0.00,0.000000,,2013-04-16 11:12:00,
2013-04-16 05:22:00,55.0,12.0,-100.00,ESE,106,4.0,10.0,18,0.00,,,0.00,0.000000,,2013-04-16 11:22:00,
2013-04-16 05:53:00,54.0,14.0,-100.00,ESE,103,3.0,7.0,20,0.00,,,0.00,0.000000,,2013-04-16 11:53:00,
2013-04-16 06:02:00,54.0,14.0,-100.00,ESE,103,3.0,7.0,20,0.00,,,0.00,0.000000,,2013-04-16 12:02:00,
2013-04-16 06:12:00,54.0,14.0,-100.00,ESE,103,3.0,7.0,20,0.00,,,0.00,0.000000,,2013-04-16 12:12:00,
2013-04-16 06:22:00,54.0,14.0,-100.00,ESE,103,3.0,7.0,20,0.00,,,0.00,0.000000,,2013-04-16 12:22:00,
2013-04-16 06:52:00,49.0,13.0,-100.00,NNW,329,0.0,5.0,23,0.00,,,0.00,0.000000,,2013-04-16 12:52:00,
2013-04-16 07:02:00,49.0,13.0,-100.00,NNW,329,0.0,5.0,23,0.00,,,0.00,0.000000,,2013-04-16 13:02:00,
2013-04-16 07:12:00,49.0,13.0,-100.00,NNW,329,0.0,5.0,23,0.00,,,0.00,0.000000,,2013-04-16 13:12:00,
2013-04-16 07:22:00,49.0,13.0,-100.00,NNW,329,0.0,5.0,23,0.00,,,0.00,0.000000,,2013-04-16 13:22:00,
2013-04-16 07:52:00,51.0,16.0,-100.00,East,98,3.0,4.0,24,0.00,,,-99.99,10.000000,,2013-04-16 13:52:00,
2013-04-16 08:02:00,51.0,16.0,-100.00,East,98,3.0,4.0,24,0.00,,,-99.99,10.000000,,2013-04-16 14:02:00,
2013-04-16 08:12:00,51.0,16.0,-100.00,East,98,3.0,4.0,24,0.00,,,-99.99,10.000000,,2013-04-16 14:12:00,
2013-04-16 08:22:00,51.0,16.0,-100.00,East,98,3.0,4.0,24,0.00,,,-99.99,10.000000,,2013-04-16 14:22:00,
2013-04-16 08:52:00,59.0,17.0,-100.00,ESE,121,6.0,12.0,19,0.00,,,0.00,149.000000,,2013-04-16 14:52:00,
2013-04-16 09:02:00,59.0,17.0,-100.00,ESE,121,6.0,12.0,19,0.00,,,0.00,149.000000,,2013-04-16 15:02:00,
2013-04-16 09:12:00,59.0,17.0,-100.00,ESE,121,6.0,12.0,19,0.00,,,0.00,149.000000,,2013-04-16 15:12:00,
2013-04-16 09:22:00,59.0,17.0,-100.00,ESE,121,6.0,12.0,19,0.00,,,0.00,149.000000,,2013-04-16 15:22:00,
2013-04-16 09:53:00,66.0,15.0,-100.00,SSE,157,1.0,15.0,14,0.00,,,0.00,583.000000,,2013-04-16 15:53:00,
2013-04-16 10:03:00,66.0,15.0,-100.00,SSE,157,1.0,15.0,14,0.00,,,0.00,583.000000,,2013-04-16 16:03:00,
2013-04-16 10:13:00,66.0,15.0,-100.00,SSE,157,1.0,15.0,14,0.00,,,0.00,583.000000,,2013-04-16 16:13:00,
2013-04-16 10:23:00,66.0,15.0,-100.00,SSE,157,1.0,15.0,14,0.00,,,0.00,583.000000,,2013-04-16 16:23:00,
2013-04-16 10:53:00,63.0,13.0,-100.00,WSW,237,10.0,22.0,14,0.00,,,0.00,844.000000,,2013-04-16 16:53:00,
2013-04-16 11:02:00,63.0,13.0,-100.00,WSW,237,10.0,22.0,14,0.00,,,0.00,844.000000,,2013-04-16 17:02:00,
2013-04-16 11:12:00,63.0,13.0,-100.00,WSW,237,10.0,22.0,14,0.00,,,0.00,844.000000,,2013-04-16 17:12:00,
2013-04-16 11:22:00,63.0,13.0,-100.00,WSW,237,10.0,22.0,14,0.00,,,0.00,844.000000,,2013-04-16 17:22:00,
2013-04-16 11:53:00,67.0,16.0,-100.00,SW,226,13.0,28.0,14,0.00,,,0.00,1051.000000,,2013-04-16 17:53:00,
2013-04-16 12:02:00,67.0,16.0,-100.00,SW,226,13.0,28.0,14,0.00,,,0.00,1051.000000,,2013-04-16 18:02:00,
2013-04-16 12:12:00,67.0,16.0,-100.00,SW,226,13.0,28.0,14,0.00,,,0.00,1051.000000,,2013-04-16 18:12:00,
2013-04-16 12:22:00,67.0,16.0,-100.00,SW,226,13.0,28.0,14,0.00,,,0.00,1051.000000,,2013-04-16 18:22:00,
2013-04-16 12:52:00,71.0,14.0,-100.00,WSW,238,15.0,30.0,11,0.00,,,0.00,1186.000000,,2013-04-16 18:52:00,
2013-04-16 13:02:00,71.0,14.0,-100.00,WSW,238,15.0,30.0,11,0.00,,,0.00,1186.000000,,2013-04-16 19:02:00,
2013-04-16 13:12:00,71.0,14.0,-100.00,WSW,238,15.0,30.0,11,0.00,,,0.00,1186.000000,,2013-04-16 19:12:00,
2013-04-16 13:22:00,71.0,14.0,-100.00,WSW,238,15.0,30.0,11,0.00,,,0.00,1186.000000,,2013-04-16 19:22:00,
2013-04-16 13:52:00,72.0,12.0,-100.00,SW,223,21.0,35.0,10,0.00,,,0.00,1245.000000,,2013-04-16 19:52:00,
2013-04-16 14:02:00,72.0,12.0,-100.00,SW,223,21.0,35.0,10,0.00,,,0.00,1245.000000,,2013-04-16 20:02:00,
2013-04-16 14:12:00,72.0,12.0,-100.00,SW,223,21.0,35.0,10,0.00,,,0.00,1245.000000,,2013-04-16 20:12:00,
2013-04-16 14:22:00,72.0,12.0,-100.00,SW,223,21.0,35.0,10,0.00,,,0.00,1245.000000,,2013-04-16 20:22:00,
2013-04-16 14:52:00,74.0,12.0,-100.00,SW,222,21.0,40.0,9,0.00,,,0.00,1221.000000,,2013-04-16 20:52:00,
2013-04-16 15:02:00,74.0,12.0,-100.00,SW,222,21.0,40.0,9,0.00,,,0.00,1221.000000,,2013-04-16 21:02:00,
2013-04-16 15:12:00,74.0,12.0,-100.00,SW,222,21.0,40.0,9,0.00,,,0.00,1221.000000,,2013-04-16 21:12:00,
2013-04-16 15:22:00,74.0,12.0,-100.00,SW,222,21.0,40.0,9,0.00,,,0.00,1221.000000,,2013-04-16 21:22:00,
2013-04-16 15:53:00,77.0,5.0,-100.00,SW,235,24.0,38.0,6,0.00,,,0.00,1108.000000,,2013-04-16 21:53:00,
2013-04-16 16:03:00,77.0,5.0,-100.00,SW,235,24.0,38.0,6,0.00,,,0.00,1108.000000,,2013-04-16 22:03:00,
2013-04-16 16:13:00,77.0,5.0,-100.00,SW,235,24.0,38.0,6,0.00,,,0.00,1108.000000,,2013-04-16 22:13:00,
2013-04-16 16:22:00,77.0,5.0,-100.00,SW,235,24.0,38.0,6,0.00,,,0.00,1108.000000,,2013-04-16 22:22:00,
2013-04-16 16:52:00,77.0,5.0,-100.00,SW,228,21.0,38.0,6,0.00,,,0.00,932.000000,,2013-04-16 22:52:00,
2013-04-16 17:02:00,77.0,5.0,-100.00,SW,228,21.0,38.0,6,0.00,,,0.00,932.000000,,2013-04-16 23:02:00,
2013-04-16 17:12:00,77.0,5.0,-100.00,SW,228,21.0,38.0,6,0.00,,,0.00,932.000000,,2013-04-16 23:12:00,
2013-04-16 17:22:00,77.0,5.0,-100.00,SW,228,21.0,38.0,6,0.00,,,0.00,932.000000,,2013-04-16 23:22:00,
2013-04-16 17:52:00,77.0,5.0,-100.00,SW,234,19.0,41.0,6,0.00,,,0.00,695.000000,,2013-04-16 23:52:00,
2013-04-16 18:02:00,77.0,5.0,-100.00,SW,234,19.0,41.0,6,0.00,,,0.00,695.000000,,2013-04-17 00:02:00,
2013-04-16 18:12:00,77.0,5.0,-100.00,SW,234,19.0,41.0,6,0.00,,,0.00,695.000000,,2013-04-17 00:12:00,
2013-04-16 18:22:00,77.0,5.0,-100.00,SW,234,19.0,41.0,6,0.00,,,0.00,695.000000,,2013-04-17 00:22:00,
2013-04-16 18:52:00,76.0,4.0,-100.00,SW,234,17.0,35.0,6,0.00,,,0.00,410.000000,,2013-04-17 00:52:00,
2013-04-16 19:02:00,76.0,4.0,-100.00,SW,234,17.0,35.0,6,0.00,,,0.00,410.000000,,2013-04-17 01:02:00,
2013-04-16 19:12:00,76.0,4.0,-100.00,SW,234,17.0,35.0,6,0.00,,,0.00,410.000000,,2013-04-17 01:12:00,
2013-04-16 19:22:00,76.0,4.0,-100.00,SW,234,17.0,35.0,6,0.00,,,0.00,410.000000,,2013-04-17 01:22:00,
2013-04-16 19:52:00,72.0,5.0,-100.00,SW,220,19.0,35.0,7,0.00,,,0.00,114.000000,,2013-04-17 01:52:00,
2013-04-16 20:02:00,72.0,5.0,-100.00,SW,220,19.0,35.0,7,0.00,,,0.00,114.000000,,2013-04-17 02:02:00,
2013-04-16 20:12:00,72.0,5.0,-100.00,SW,220,19.0,35.0,7,0.00,,,0.00,114.000000,,2013-04-17 02:12:00,
2013-04-16 20:22:00,72.0,5.0,-100.00,SW,220,19.0,35.0,7,0.00,,,0.00,114.000000,,2013-04-17 02:22:00,
2013-04-16 20:52:00,65.0,5.0,-100.00,SW,230,6.0,32.0,9,0.00,,,0.00,3.000000,,2013-04-17 02:52:00,
2013-04-16 21:02:00,65.0,5.0,-100.00,SW,230,6.0,32.0,9,0.00,,,0.00,3.000000,,2013-04-17 03:02:00,
2013-04-16 21:12:00,65.0,5.0,-100.00,SW,230,6.0,32.0,9,0.00,,,0.00,3.000000,,2013-04-17 03:12:00,
2013-04-16 21:22:00,65.0,5.0,-100.00,SW,230,6.0,32.0,9,0.00,,,0.00,3.000000,,2013-04-17 03:22:00,
2013-04-16 21:53:00,65.0,5.0,-100.00,SSW,212,8.0,17.0,9,0.00,,,0.00,0.000000,,2013-04-17 03:53:00,
2013-04-16 22:03:00,65.0,5.0,-100.00,SSW,212,8.0,17.0,9,0.00,,,0.00,0.000000,,2013-04-17 04:03:00,
2013-04-16 22:13:00,65.0,5.0,-100.00,SSW,212,8.0,17.0,9,0.00,,,0.00,0.000000,,2013-04-17 04:13:00,
2013-04-16 22:22:00,65.0,5.0,-100.00,SSW,212,8.0,17.0,9,0.00,,,0.00,0.000000,,2013-04-17 04:22:00,
2013-04-16 22:52:00,65.0,5.0,-100.00,SW,224,9.0,16.0,9,0.00,,,0.00,0.000000,,2013-04-17 04:52:00,
2013-04-16 23:02:00,65.0,5.0,-100.00,SW,224,9.0,16.0,9,0.00,,,0.00,0.000000,,2013-04-17 05:02:00,
2013-04-16 23:12:00,65.0,5.0,-100.00,SW,224,9.0,16.0,9,0.00,,,0.00,0.000000,,2013-04-17 05:12:00,
2013-04-16 23:22:00,65.0,5.0,-100.00,SW,224,9.0,16.0,9,0.00,,,0.00,0.000000,,2013-04-17 05:22:00,
2013-04-16 23:52:00,63.0,10.0,-100.00,SW,214,7.0,21.0,12,0.00,,,0.00,0.000000,,2013-04-17 05:52:00,